sensor_id;sensor_type;location;lat;lon;timestamp;P1;durP1;ratioP1;P2;durP2;ratioP2
16954;SDS011;8594;52.052;8.354;2023-04-29T00:01:12;38.47;;;21.47;;
16954;SDS011;8594;52.052;8.354;2023-04-29T00:03:40;35.73;;;21.13;;
16954;SDS011;8594;52.052;8.354;2023-04-29T00:06:08;40.67;;;23.53;;
16954;SDS011;8594;52.052;8.354;2023-04-29T00:08:36;40.13;;;23.47;;
16954;SDS011;8594;52.052;8.354;2023-04-29T00:11:03;41.63;;;23.50;;
16954;SDS011;8594;52.052;8.354;2023-04-29T00:13:30;44.63;;;25.33;;
16954;SDS011;8594;52.052;8.354;2023-04-29T00:15:57;48.00;;;26.17;;
16954;SDS011;8594;52.052;8.354;2023-04-29T00:18:23;48.80;;;26.27;;
16954;SDS011;8594;52.052;8.354;2023-04-29T00:20:51;49.03;;;25.77;;
16954;SDS011;8594;52.052;8.354;2023-04-29T00:23:18;54.23;;;28.40;;
16954;SDS011;8594;52.052;8.354;2023-04-29T00:25:45;55.63;;;28.93;;
16954;SDS011;8594;52.052;8.354;2023-04-29T00:28:12;57.70;;;29.70;;
16954;SDS011;8594;52.052;8.354;2023-04-29T00:30:38;63.27;;;30.43;;
16954;SDS011;8594;52.052;8.354;2023-04-29T00:33:05;59.30;;;30.37;;
16954;SDS011;8594;52.052;8.354;2023-04-29T00:35:32;59.57;;;31.20;;
16954;SDS011;8594;52.052;8.354;2023-04-29T00:38:00;61.43;;;30.50;;
16954;SDS011;8594;52.052;8.354;2023-04-29T00:40:27;61.17;;;30.83;;
16954;SDS011;8594;52.052;8.354;2023-04-29T00:42:54;60.13;;;31.60;;
16954;SDS011;8594;52.052;8.354;2023-04-29T00:45:21;61.60;;;30.90;;
16954;SDS011;8594;52.052;8.354;2023-04-29T00:47:48;62.23;;;31.77;;
16954;SDS011;8594;52.052;8.354;2023-04-29T00:50:15;62.50;;;30.13;;
16954;SDS011;8594;52.052;8.354;2023-04-29T00:52:43;65.70;;;31.63;;
16954;SDS011;8594;52.052;8.354;2023-04-29T00:55:11;64.97;;;31.10;;
16954;SDS011;8594;52.052;8.354;2023-04-29T00:57:38;64.90;;;30.87;;
16954;SDS011;8594;52.052;8.354;2023-04-29T01:00:05;68.23;;;32.60;;
16954;SDS011;8594;52.052;8.354;2023-04-29T01:02:34;69.43;;;32.47;;
16954;SDS011;8594;52.052;8.354;2023-04-29T01:05:01;67.93;;;31.03;;
16954;SDS011;8594;52.052;8.354;2023-04-29T01:07:29;74.97;;;33.97;;
16954;SDS011;8594;52.052;8.354;2023-04-29T01:10:02;75.67;;;33.70;;
16954;SDS011;8594;52.052;8.354;2023-04-29T01:12:40;75.53;;;33.47;;
16954;SDS011;8594;52.052;8.354;2023-04-29T01:15:16;78.07;;;34.00;;
16954;SDS011;8594;52.052;8.354;2023-04-29T01:17:54;74.23;;;32.90;;
16954;SDS011;8594;52.052;8.354;2023-04-29T01:20:25;78.57;;;34.93;;
16954;SDS011;8594;52.052;8.354;2023-04-29T01:22:53;79.70;;;35.10;;
16954;SDS011;8594;52.052;8.354;2023-04-29T01:25:21;80.47;;;36.10;;
16954;SDS011;8594;52.052;8.354;2023-04-29T01:27:50;78.23;;;34.80;;
16954;SDS011;8594;52.052;8.354;2023-04-29T01:30:31;84.43;;;36.53;;
16954;SDS011;8594;52.052;8.354;2023-04-29T01:33:13;77.43;;;36.57;;
16954;SDS011;8594;52.052;8.354;2023-04-29T01:35:55;86.57;;;37.13;;
16954;SDS011;8594;52.052;8.354;2023-04-29T01:38:38;89.20;;;37.40;;
16954;SDS011;8594;52.052;8.354;2023-04-29T01:41:21;88.47;;;36.93;;
16954;SDS011;8594;52.052;8.354;2023-04-29T01:43:55;84.00;;;36.47;;
16954;SDS011;8594;52.052;8.354;2023-04-29T01:46:24;81.60;;;34.97;;
16954;SDS011;8594;52.052;8.354;2023-04-29T01:48:53;81.47;;;33.93;;
16954;SDS011;8594;52.052;8.354;2023-04-29T01:51:20;84.87;;;34.57;;
16954;SDS011;8594;52.052;8.354;2023-04-29T01:53:46;75.90;;;32.70;;
16954;SDS011;8594;52.052;8.354;2023-04-29T01:56:13;70.17;;;30.77;;
16954;SDS011;8594;52.052;8.354;2023-04-29T01:58:41;66.23;;;31.93;;
16954;SDS011;8594;52.052;8.354;2023-04-29T02:01:08;70.07;;;31.73;;
16954;SDS011;8594;52.052;8.354;2023-04-29T02:03:35;66.50;;;30.27;;
16954;SDS011;8594;52.052;8.354;2023-04-29T02:06:03;77.17;;;31.23;;
16954;SDS011;8594;52.052;8.354;2023-04-29T02:08:31;68.60;;;29.67;;
16954;SDS011;8594;52.052;8.354;2023-04-29T02:10:58;64.43;;;28.60;;
16954;SDS011;8594;52.052;8.354;2023-04-29T02:13:25;65.30;;;29.47;;
16954;SDS011;8594;52.052;8.354;2023-04-29T02:15:53;71.27;;;29.33;;
16954;SDS011;8594;52.052;8.354;2023-04-29T02:18:19;65.60;;;28.53;;
16954;SDS011;8594;52.052;8.354;2023-04-29T02:20:46;65.37;;;29.70;;
16954;SDS011;8594;52.052;8.354;2023-04-29T02:23:14;59.37;;;27.67;;
16954;SDS011;8594;52.052;8.354;2023-04-29T02:25:41;62.80;;;27.67;;
16954;SDS011;8594;52.052;8.354;2023-04-29T02:28:08;66.00;;;29.53;;
16954;SDS011;8594;52.052;8.354;2023-04-29T02:30:34;65.50;;;28.10;;
16954;SDS011;8594;52.052;8.354;2023-04-29T02:33:02;57.97;;;25.80;;
16954;SDS011;8594;52.052;8.354;2023-04-29T02:35:29;61.33;;;26.97;;
16954;SDS011;8594;52.052;8.354;2023-04-29T02:37:56;62.53;;;28.13;;
16954;SDS011;8594;52.052;8.354;2023-04-29T02:40:23;63.43;;;28.83;;
16954;SDS011;8594;52.052;8.354;2023-04-29T02:42:51;60.20;;;27.70;;
16954;SDS011;8594;52.052;8.354;2023-04-29T02:45:17;62.80;;;28.83;;
16954;SDS011;8594;52.052;8.354;2023-04-29T02:47:44;65.50;;;28.70;;
16954;SDS011;8594;52.052;8.354;2023-04-29T02:50:12;61.50;;;28.20;;
16954;SDS011;8594;52.052;8.354;2023-04-29T02:52:39;60.00;;;27.83;;
16954;SDS011;8594;52.052;8.354;2023-04-29T02:55:07;59.60;;;26.73;;
16954;SDS011;8594;52.052;8.354;2023-04-29T02:57:34;58.30;;;27.77;;
16954;SDS011;8594;52.052;8.354;2023-04-29T03:00:01;61.00;;;28.40;;
16954;SDS011;8594;52.052;8.354;2023-04-29T03:02:28;56.27;;;27.57;;
16954;SDS011;8594;52.052;8.354;2023-04-29T03:04:55;56.83;;;27.63;;
16954;SDS011;8594;52.052;8.354;2023-04-29T03:07:23;61.10;;;27.43;;
16954;SDS011;8594;52.052;8.354;2023-04-29T03:09:50;56.80;;;26.73;;
16954;SDS011;8594;52.052;8.354;2023-04-29T03:12:17;56.93;;;27.70;;
16954;SDS011;8594;52.052;8.354;2023-04-29T03:14:43;51.43;;;26.33;;
16954;SDS011;8594;52.052;8.354;2023-04-29T03:17:11;50.07;;;25.50;;
16954;SDS011;8594;52.052;8.354;2023-04-29T03:19:38;53.27;;;25.10;;
16954;SDS011;8594;52.052;8.354;2023-04-29T03:22:05;47.57;;;24.50;;
16954;SDS011;8594;52.052;8.354;2023-04-29T03:24:35;50.40;;;25.73;;
16954;SDS011;8594;52.052;8.354;2023-04-29T03:27:03;50.57;;;24.73;;
16954;SDS011;8594;52.052;8.354;2023-04-29T03:29:30;50.70;;;25.20;;
16954;SDS011;8594;52.052;8.354;2023-04-29T03:31:57;52.80;;;25.83;;
16954;SDS011;8594;52.052;8.354;2023-04-29T03:34:24;46.83;;;25.40;;
16954;SDS011;8594;52.052;8.354;2023-04-29T03:36:50;46.07;;;25.00;;
16954;SDS011;8594;52.052;8.354;2023-04-29T03:39:18;56.67;;;26.73;;
16954;SDS011;8594;52.052;8.354;2023-04-29T03:41:46;49.50;;;26.23;;
16954;SDS011;8594;52.052;8.354;2023-04-29T03:44:13;50.00;;;24.97;;
16954;SDS011;8594;52.052;8.354;2023-04-29T03:46:40;52.17;;;26.43;;
16954;SDS011;8594;52.052;8.354;2023-04-29T03:49:07;56.87;;;27.47;;
16954;SDS011;8594;52.052;8.354;2023-04-29T03:51:34;52.30;;;26.47;;
16954;SDS011;8594;52.052;8.354;2023-04-29T03:54:02;50.67;;;25.83;;
16954;SDS011;8594;52.052;8.354;2023-04-29T03:56:29;54.23;;;25.60;;
16954;SDS011;8594;52.052;8.354;2023-04-29T03:58:57;53.27;;;28.33;;
16954;SDS011;8594;52.052;8.354;2023-04-29T04:01:24;49.07;;;26.27;;
16954;SDS011;8594;52.052;8.354;2023-04-29T04:03:51;50.60;;;27.20;;
16954;SDS011;8594;52.052;8.354;2023-04-29T04:06:17;48.10;;;26.33;;
16954;SDS011;8594;52.052;8.354;2023-04-29T04:08:44;46.43;;;25.93;;
16954;SDS011;8594;52.052;8.354;2023-04-29T04:11:11;50.00;;;26.97;;
16954;SDS011;8594;52.052;8.354;2023-04-29T04:13:39;51.83;;;28.13;;
16954;SDS011;8594;52.052;8.354;2023-04-29T04:16:07;58.70;;;29.93;;
16954;SDS011;8594;52.052;8.354;2023-04-29T04:18:34;61.13;;;30.80;;
16954;SDS011;8594;52.052;8.354;2023-04-29T04:21:05;65.77;;;31.53;;
16954;SDS011;8594;52.052;8.354;2023-04-29T04:23:32;62.23;;;32.77;;
16954;SDS011;8594;52.052;8.354;2023-04-29T04:25:59;66.73;;;34.07;;
16954;SDS011;8594;52.052;8.354;2023-04-29T04:28:26;71.90;;;33.80;;
16954;SDS011;8594;52.052;8.354;2023-04-29T04:30:52;71.07;;;32.93;;
16954;SDS011;8594;52.052;8.354;2023-04-29T04:33:21;67.23;;;34.73;;
16954;SDS011;8594;52.052;8.354;2023-04-29T04:35:47;64.53;;;32.97;;
16954;SDS011;8594;52.052;8.354;2023-04-29T04:38:14;67.37;;;34.47;;
16954;SDS011;8594;52.052;8.354;2023-04-29T04:40:41;64.17;;;32.83;;
16954;SDS011;8594;52.052;8.354;2023-04-29T04:43:09;61.00;;;31.17;;
16954;SDS011;8594;52.052;8.354;2023-04-29T04:45:36;58.83;;;30.80;;
16954;SDS011;8594;52.052;8.354;2023-04-29T04:48:02;55.20;;;29.53;;
16954;SDS011;8594;52.052;8.354;2023-04-29T04:50:31;60.60;;;29.37;;
16954;SDS011;8594;52.052;8.354;2023-04-29T04:52:57;54.90;;;28.03;;
16954;SDS011;8594;52.052;8.354;2023-04-29T04:55:24;54.87;;;27.20;;
16954;SDS011;8594;52.052;8.354;2023-04-29T04:57:51;52.50;;;27.40;;
16954;SDS011;8594;52.052;8.354;2023-04-29T05:00:18;59.07;;;29.53;;
16954;SDS011;8594;52.052;8.354;2023-04-29T05:02:45;56.83;;;28.23;;
16954;SDS011;8594;52.052;8.354;2023-04-29T05:05:12;56.23;;;28.27;;
16954;SDS011;8594;52.052;8.354;2023-04-29T05:07:40;55.00;;;27.40;;
16954;SDS011;8594;52.052;8.354;2023-04-29T05:10:07;56.33;;;28.00;;
16954;SDS011;8594;52.052;8.354;2023-04-29T05:12:35;49.37;;;25.50;;
16954;SDS011;8594;52.052;8.354;2023-04-29T05:15:02;49.27;;;24.70;;
16954;SDS011;8594;52.052;8.354;2023-04-29T05:17:29;49.27;;;24.63;;
16954;SDS011;8594;52.052;8.354;2023-04-29T05:19:56;49.73;;;25.30;;
16954;SDS011;8594;52.052;8.354;2023-04-29T05:22:23;45.27;;;24.73;;
16954;SDS011;8594;52.052;8.354;2023-04-29T05:24:51;45.03;;;23.83;;
16954;SDS011;8594;52.052;8.354;2023-04-29T05:27:18;48.10;;;24.23;;
16954;SDS011;8594;52.052;8.354;2023-04-29T05:29:44;39.90;;;22.77;;
16954;SDS011;8594;52.052;8.354;2023-04-29T05:32:11;48.00;;;24.70;;
16954;SDS011;8594;52.052;8.354;2023-04-29T05:34:38;44.17;;;23.77;;
16954;SDS011;8594;52.052;8.354;2023-04-29T05:37:05;43.47;;;23.33;;
16954;SDS011;8594;52.052;8.354;2023-04-29T05:39:32;42.97;;;23.20;;
16954;SDS011;8594;52.052;8.354;2023-04-29T05:42:00;41.57;;;22.93;;
16954;SDS011;8594;52.052;8.354;2023-04-29T05:44:27;42.63;;;22.60;;
16954;SDS011;8594;52.052;8.354;2023-04-29T05:46:54;43.93;;;22.67;;
16954;SDS011;8594;52.052;8.354;2023-04-29T05:49:21;39.53;;;22.00;;
16954;SDS011;8594;52.052;8.354;2023-04-29T05:51:47;36.93;;;21.20;;
16954;SDS011;8594;52.052;8.354;2023-04-29T05:54:14;37.30;;;21.77;;
16954;SDS011;8594;52.052;8.354;2023-04-29T05:56:41;39.00;;;21.40;;
16954;SDS011;8594;52.052;8.354;2023-04-29T05:59:09;34.67;;;21.43;;
16954;SDS011;8594;52.052;8.354;2023-04-29T06:01:36;38.70;;;21.53;;
16954;SDS011;8594;52.052;8.354;2023-04-29T06:04:03;37.93;;;22.17;;
16954;SDS011;8594;52.052;8.354;2023-04-29T06:06:30;37.13;;;22.03;;
16954;SDS011;8594;52.052;8.354;2023-04-29T06:08:58;37.97;;;21.73;;
16954;SDS011;8594;52.052;8.354;2023-04-29T06:11:26;39.03;;;21.40;;
16954;SDS011;8594;52.052;8.354;2023-04-29T06:13:53;38.80;;;22.20;;
16954;SDS011;8594;52.052;8.354;2023-04-29T06:16:21;41.63;;;22.40;;
16954;SDS011;8594;52.052;8.354;2023-04-29T06:18:48;39.87;;;23.90;;
16954;SDS011;8594;52.052;8.354;2023-04-29T06:21:14;40.93;;;23.57;;
16954;SDS011;8594;52.052;8.354;2023-04-29T06:23:41;37.93;;;23.27;;
16954;SDS011;8594;52.052;8.354;2023-04-29T06:26:08;37.40;;;23.43;;
16954;SDS011;8594;52.052;8.354;2023-04-29T06:28:35;39.93;;;23.57;;
16954;SDS011;8594;52.052;8.354;2023-04-29T06:31:01;42.07;;;24.10;;
16954;SDS011;8594;52.052;8.354;2023-04-29T06:33:30;37.30;;;23.77;;
16954;SDS011;8594;52.052;8.354;2023-04-29T06:35:58;37.83;;;23.10;;
16954;SDS011;8594;52.052;8.354;2023-04-29T06:38:24;41.43;;;24.27;;
16954;SDS011;8594;52.052;8.354;2023-04-29T06:40:51;45.87;;;24.97;;
16954;SDS011;8594;52.052;8.354;2023-04-29T06:43:18;49.00;;;25.67;;
16954;SDS011;8594;52.052;8.354;2023-04-29T06:45:45;43.13;;;26.23;;
16954;SDS011;8594;52.052;8.354;2023-04-29T06:48:12;46.33;;;27.50;;
16954;SDS011;8594;52.052;8.354;2023-04-29T06:50:40;46.70;;;25.67;;
16954;SDS011;8594;52.052;8.354;2023-04-29T06:53:15;46.63;;;27.07;;
16954;SDS011;8594;52.052;8.354;2023-04-29T06:55:42;52.40;;;27.77;;
16954;SDS011;8594;52.052;8.354;2023-04-29T06:58:10;49.80;;;27.93;;
16954;SDS011;8594;52.052;8.354;2023-04-29T07:00:37;55.37;;;29.20;;
16954;SDS011;8594;52.052;8.354;2023-04-29T07:03:04;56.70;;;30.77;;
16954;SDS011;8594;52.052;8.354;2023-04-29T07:05:31;51.77;;;28.60;;
16954;SDS011;8594;52.052;8.354;2023-04-29T07:07:59;55.17;;;29.93;;
16954;SDS011;8594;52.052;8.354;2023-04-29T07:10:26;56.17;;;29.50;;
16954;SDS011;8594;52.052;8.354;2023-04-29T07:12:53;54.87;;;30.23;;
16954;SDS011;8594;52.052;8.354;2023-04-29T07:15:20;56.73;;;30.50;;
16954;SDS011;8594;52.052;8.354;2023-04-29T07:17:47;53.43;;;29.53;;
16954;SDS011;8594;52.052;8.354;2023-04-29T07:20:14;53.90;;;29.80;;
16954;SDS011;8594;52.052;8.354;2023-04-29T07:22:41;53.43;;;29.23;;
16954;SDS011;8594;52.052;8.354;2023-04-29T07:25:09;54.60;;;29.53;;
16954;SDS011;8594;52.052;8.354;2023-04-29T07:27:36;58.73;;;31.80;;
16954;SDS011;8594;52.052;8.354;2023-04-29T07:30:03;50.13;;;29.13;;
16954;SDS011;8594;52.052;8.354;2023-04-29T07:32:31;56.83;;;29.57;;
16954;SDS011;8594;52.052;8.354;2023-04-29T07:34:58;55.20;;;28.83;;
16954;SDS011;8594;52.052;8.354;2023-04-29T07:37:25;55.27;;;29.40;;
16954;SDS011;8594;52.052;8.354;2023-04-29T07:39:52;49.57;;;27.70;;
16954;SDS011;8594;52.052;8.354;2023-04-29T07:42:20;51.57;;;28.23;;
16954;SDS011;8594;52.052;8.354;2023-04-29T07:44:47;50.07;;;28.83;;
16954;SDS011;8594;52.052;8.354;2023-04-29T07:47:13;49.93;;;27.80;;
16954;SDS011;8594;52.052;8.354;2023-04-29T07:49:40;53.63;;;27.67;;
16954;SDS011;8594;52.052;8.354;2023-04-29T07:52:07;49.50;;;28.13;;
16954;SDS011;8594;52.052;8.354;2023-04-29T07:54:34;46.37;;;25.90;;
16954;SDS011;8594;52.052;8.354;2023-04-29T07:57:01;44.37;;;26.23;;
16954;SDS011;8594;52.052;8.354;2023-04-29T07:59:30;46.60;;;26.23;;
16954;SDS011;8594;52.052;8.354;2023-04-29T08:01:57;45.03;;;25.70;;
16954;SDS011;8594;52.052;8.354;2023-04-29T08:04:24;48.53;;;25.33;;
16954;SDS011;8594;52.052;8.354;2023-04-29T08:06:51;45.27;;;25.60;;
16954;SDS011;8594;52.052;8.354;2023-04-29T08:09:18;47.33;;;26.60;;
16954;SDS011;8594;52.052;8.354;2023-04-29T08:11:45;51.70;;;27.07;;
16954;SDS011;8594;52.052;8.354;2023-04-29T08:14:12;41.90;;;24.83;;
16954;SDS011;8594;52.052;8.354;2023-04-29T08:16:40;49.40;;;28.17;;
16954;SDS011;8594;52.052;8.354;2023-04-29T08:19:07;50.27;;;28.73;;
16954;SDS011;8594;52.052;8.354;2023-04-29T08:21:34;48.10;;;26.87;;
16954;SDS011;8594;52.052;8.354;2023-04-29T08:24:01;42.53;;;26.00;;
16954;SDS011;8594;52.052;8.354;2023-04-29T08:26:27;40.33;;;25.67;;
16954;SDS011;8594;52.052;8.354;2023-04-29T08:28:54;41.70;;;24.53;;
16954;SDS011;8594;52.052;8.354;2023-04-29T08:31:21;44.80;;;24.17;;
16954;SDS011;8594;52.052;8.354;2023-04-29T08:33:49;40.43;;;24.00;;
16954;SDS011;8594;52.052;8.354;2023-04-29T08:36:16;41.67;;;25.90;;
16954;SDS011;8594;52.052;8.354;2023-04-29T08:38:42;42.57;;;24.97;;
16954;SDS011;8594;52.052;8.354;2023-04-29T08:41:10;42.00;;;23.63;;
16954;SDS011;8594;52.052;8.354;2023-04-29T08:43:39;39.30;;;23.83;;
16954;SDS011;8594;52.052;8.354;2023-04-29T08:46:06;42.30;;;23.63;;
16954;SDS011;8594;52.052;8.354;2023-04-29T08:48:35;35.93;;;23.37;;
16954;SDS011;8594;52.052;8.354;2023-04-29T08:51:05;37.97;;;22.83;;
16954;SDS011;8594;52.052;8.354;2023-04-29T08:53:32;38.83;;;22.53;;
16954;SDS011;8594;52.052;8.354;2023-04-29T08:55:59;38.70;;;22.40;;
16954;SDS011;8594;52.052;8.354;2023-04-29T08:58:35;37.37;;;22.60;;
16954;SDS011;8594;52.052;8.354;2023-04-29T09:01:06;35.80;;;23.10;;
16954;SDS011;8594;52.052;8.354;2023-04-29T09:03:36;36.93;;;22.50;;
16954;SDS011;8594;52.052;8.354;2023-04-29T09:06:15;36.50;;;22.47;;
16954;SDS011;8594;52.052;8.354;2023-04-29T09:08:42;40.17;;;22.07;;
16954;SDS011;8594;52.052;8.354;2023-04-29T09:11:09;37.27;;;23.50;;
16954;SDS011;8594;52.052;8.354;2023-04-29T09:13:38;44.10;;;26.40;;
16954;SDS011;8594;52.052;8.354;2023-04-29T09:16:09;32.77;;;20.43;;
16954;SDS011;8594;52.052;8.354;2023-04-29T09:18:43;31.23;;;19.67;;
16954;SDS011;8594;52.052;8.354;2023-04-29T09:21:15;29.27;;;20.07;;
16954;SDS011;8594;52.052;8.354;2023-04-29T09:23:44;31.33;;;20.17;;
16954;SDS011;8594;52.052;8.354;2023-04-29T09:26:12;33.30;;;18.80;;
16954;SDS011;8594;52.052;8.354;2023-04-29T09:28:39;35.00;;;20.53;;
16954;SDS011;8594;52.052;8.354;2023-04-29T09:31:09;29.40;;;19.23;;
16954;SDS011;8594;52.052;8.354;2023-04-29T09:33:49;37.97;;;20.23;;
16954;SDS011;8594;52.052;8.354;2023-04-29T09:39:10;34.47;;;19.70;;
16954;SDS011;8594;52.052;8.354;2023-04-29T09:41:41;34.97;;;19.70;;
16954;SDS011;8594;52.052;8.354;2023-04-29T09:44:24;32.97;;;20.07;;
16954;SDS011;8594;52.052;8.354;2023-04-29T09:46:54;33.10;;;18.93;;
16954;SDS011;8594;52.052;8.354;2023-04-29T09:49:23;31.97;;;18.87;;
16954;SDS011;8594;52.052;8.354;2023-04-29T09:51:52;32.33;;;18.77;;
16954;SDS011;8594;52.052;8.354;2023-04-29T09:54:21;31.20;;;18.63;;
16954;SDS011;8594;52.052;8.354;2023-04-29T09:56:50;37.20;;;18.83;;
16954;SDS011;8594;52.052;8.354;2023-04-29T09:59:18;32.63;;;19.40;;
16954;SDS011;8594;52.052;8.354;2023-04-29T10:01:47;28.33;;;19.00;;
16954;SDS011;8594;52.052;8.354;2023-04-29T10:04:16;34.17;;;18.00;;
16954;SDS011;8594;52.052;8.354;2023-04-29T10:06:44;29.37;;;18.70;;
16954;SDS011;8594;52.052;8.354;2023-04-29T10:09:16;29.00;;;16.67;;
16954;SDS011;8594;52.052;8.354;2023-04-29T10:11:45;27.63;;;16.47;;
16954;SDS011;8594;52.052;8.354;2023-04-29T10:14:15;30.43;;;17.70;;
16954;SDS011;8594;52.052;8.354;2023-04-29T10:16:47;26.97;;;17.73;;
16954;SDS011;8594;52.052;8.354;2023-04-29T10:19:24;31.73;;;17.70;;
16954;SDS011;8594;52.052;8.354;2023-04-29T10:21:57;26.03;;;16.30;;
16954;SDS011;8594;52.052;8.354;2023-04-29T10:24:34;28.60;;;16.53;;
16954;SDS011;8594;52.052;8.354;2023-04-29T10:27:02;24.47;;;16.13;;
16954;SDS011;8594;52.052;8.354;2023-04-29T10:29:34;28.80;;;16.20;;
16954;SDS011;8594;52.052;8.354;2023-04-29T10:32:04;27.10;;;16.20;;
16954;SDS011;8594;52.052;8.354;2023-04-29T10:34:34;28.40;;;15.60;;
16954;SDS011;8594;52.052;8.354;2023-04-29T10:37:04;28.83;;;15.30;;
16954;SDS011;8594;52.052;8.354;2023-04-29T10:39:35;26.27;;;16.00;;
16954;SDS011;8594;52.052;8.354;2023-04-29T10:42:15;25.70;;;16.40;;
16954;SDS011;8594;52.052;8.354;2023-04-29T10:51:00;25.10;;;14.30;;
16954;SDS011;8594;52.052;8.354;2023-04-29T10:53:28;23.93;;;14.90;;
16954;SDS011;8594;52.052;8.354;2023-04-29T10:55:58;27.93;;;14.90;;
16954;SDS011;8594;52.052;8.354;2023-04-29T10:58:35;23.90;;;14.97;;
16954;SDS011;8594;52.052;8.354;2023-04-29T11:01:10;25.30;;;14.37;;
16954;SDS011;8594;52.052;8.354;2023-04-29T11:03:47;19.57;;;13.67;;
16954;SDS011;8594;52.052;8.354;2023-04-29T11:06:23;20.83;;;13.60;;
16954;SDS011;8594;52.052;8.354;2023-04-29T11:09:08;24.53;;;15.57;;
16954;SDS011;8594;52.052;8.354;2023-04-29T11:11:58;27.53;;;15.10;;
16954;SDS011;8594;52.052;8.354;2023-04-29T11:14:28;21.80;;;14.60;;
16954;SDS011;8594;52.052;8.354;2023-04-29T11:17:00;22.57;;;13.63;;
16954;SDS011;8594;52.052;8.354;2023-04-29T11:19:30;20.00;;;13.80;;
16954;SDS011;8594;52.052;8.354;2023-04-29T11:22:02;25.33;;;13.87;;
16954;SDS011;8594;52.052;8.354;2023-04-29T11:24:48;23.27;;;13.93;;
16954;SDS011;8594;52.052;8.354;2023-04-29T11:27:22;23.37;;;13.33;;
16954;SDS011;8594;52.052;8.354;2023-04-29T11:29:52;22.63;;;14.10;;
16954;SDS011;8594;52.052;8.354;2023-04-29T11:32:22;24.30;;;14.00;;
16954;SDS011;8594;52.052;8.354;2023-04-29T11:34:50;26.43;;;14.23;;
16954;SDS011;8594;52.052;8.354;2023-04-29T11:37:18;20.00;;;12.80;;
16954;SDS011;8594;52.052;8.354;2023-04-29T11:39:47;22.13;;;12.90;;
16954;SDS011;8594;52.052;8.354;2023-04-29T11:42:18;18.73;;;12.50;;
16954;SDS011;8594;52.052;8.354;2023-04-29T11:44:49;17.60;;;11.90;;
16954;SDS011;8594;52.052;8.354;2023-04-29T11:47:18;23.17;;;12.40;;
16954;SDS011;8594;52.052;8.354;2023-04-29T11:49:46;21.50;;;12.73;;
16954;SDS011;8594;52.052;8.354;2023-04-29T11:52:13;17.50;;;11.77;;
16954;SDS011;8594;52.052;8.354;2023-04-29T11:54:41;22.50;;;12.77;;
16954;SDS011;8594;52.052;8.354;2023-04-29T11:57:09;20.87;;;12.70;;
16954;SDS011;8594;52.052;8.354;2023-04-29T11:59:36;19.10;;;11.57;;
16954;SDS011;8594;52.052;8.354;2023-04-29T12:02:05;19.77;;;11.93;;
16954;SDS011;8594;52.052;8.354;2023-04-29T12:04:43;20.00;;;11.93;;
16954;SDS011;8594;52.052;8.354;2023-04-29T12:07:11;16.00;;;11.40;;
16954;SDS011;8594;52.052;8.354;2023-04-29T12:09:41;18.97;;;11.53;;
16954;SDS011;8594;52.052;8.354;2023-04-29T12:12:08;17.20;;;11.20;;
16954;SDS011;8594;52.052;8.354;2023-04-29T12:14:36;18.43;;;10.67;;
16954;SDS011;8594;52.052;8.354;2023-04-29T12:17:06;16.67;;;10.67;;
16954;SDS011;8594;52.052;8.354;2023-04-29T12:19:34;20.07;;;10.67;;
16954;SDS011;8594;52.052;8.354;2023-04-29T12:22:03;17.27;;;10.67;;
16954;SDS011;8594;52.052;8.354;2023-04-29T12:24:31;22.07;;;10.97;;
16954;SDS011;8594;52.052;8.354;2023-04-29T12:27:00;18.00;;;11.43;;
16954;SDS011;8594;52.052;8.354;2023-04-29T12:29:28;17.70;;;10.47;;
16954;SDS011;8594;52.052;8.354;2023-04-29T12:31:56;16.97;;;10.33;;
16954;SDS011;8594;52.052;8.354;2023-04-29T12:34:25;17.37;;;10.37;;
16954;SDS011;8594;52.052;8.354;2023-04-29T12:36:54;15.13;;;10.20;;
16954;SDS011;8594;52.052;8.354;2023-04-29T12:39:22;20.13;;;10.20;;
16954;SDS011;8594;52.052;8.354;2023-04-29T12:41:53;27.20;;;16.20;;
16954;SDS011;8594;52.052;8.354;2023-04-29T12:44:22;21.73;;;12.30;;
16954;SDS011;8594;52.052;8.354;2023-04-29T12:46:50;18.90;;;10.47;;
16954;SDS011;8594;52.052;8.354;2023-04-29T12:49:18;20.53;;;11.10;;
16954;SDS011;8594;52.052;8.354;2023-04-29T12:51:46;20.63;;;11.53;;
16954;SDS011;8594;52.052;8.354;2023-04-29T12:54:13;17.60;;;10.10;;
16954;SDS011;8594;52.052;8.354;2023-04-29T12:56:40;16.17;;;9.77;;
16954;SDS011;8594;52.052;8.354;2023-04-29T12:59:08;15.73;;;9.40;;
16954;SDS011;8594;52.052;8.354;2023-04-29T13:01:36;19.37;;;10.53;;
16954;SDS011;8594;52.052;8.354;2023-04-29T13:04:04;16.20;;;9.43;;
16954;SDS011;8594;52.052;8.354;2023-04-29T13:06:33;14.40;;;9.33;;
16954;SDS011;8594;52.052;8.354;2023-04-29T13:09:05;17.77;;;9.80;;
16954;SDS011;8594;52.052;8.354;2023-04-29T13:11:35;15.67;;;9.83;;
16954;SDS011;8594;52.052;8.354;2023-04-29T13:14:02;19.73;;;9.97;;
16954;SDS011;8594;52.052;8.354;2023-04-29T13:16:30;17.43;;;9.97;;
16954;SDS011;8594;52.052;8.354;2023-04-29T13:18:57;19.67;;;10.50;;
16954;SDS011;8594;52.052;8.354;2023-04-29T13:21:24;15.67;;;9.73;;
16954;SDS011;8594;52.052;8.354;2023-04-29T13:23:51;13.63;;;9.47;;
16954;SDS011;8594;52.052;8.354;2023-04-29T13:26:20;15.07;;;9.37;;
16954;SDS011;8594;52.052;8.354;2023-04-29T13:28:47;16.90;;;9.47;;
16954;SDS011;8594;52.052;8.354;2023-04-29T13:31:14;16.47;;;10.27;;
16954;SDS011;8594;52.052;8.354;2023-04-29T13:33:41;16.10;;;9.30;;
16954;SDS011;8594;52.052;8.354;2023-04-29T13:36:08;14.93;;;9.07;;
16954;SDS011;8594;52.052;8.354;2023-04-29T13:38:35;17.17;;;8.83;;
16954;SDS011;8594;52.052;8.354;2023-04-29T13:41:01;14.90;;;9.23;;
16954;SDS011;8594;52.052;8.354;2023-04-29T13:43:30;13.87;;;8.57;;
16954;SDS011;8594;52.052;8.354;2023-04-29T13:45:56;15.53;;;8.97;;
16954;SDS011;8594;52.052;8.354;2023-04-29T13:48:24;15.17;;;9.00;;
16954;SDS011;8594;52.052;8.354;2023-04-29T13:50:51;14.67;;;9.53;;
16954;SDS011;8594;52.052;8.354;2023-04-29T13:53:18;14.80;;;8.37;;
16954;SDS011;8594;52.052;8.354;2023-04-29T13:55:45;14.60;;;9.00;;
16954;SDS011;8594;52.052;8.354;2023-04-29T13:58:12;15.93;;;8.50;;
16954;SDS011;8594;52.052;8.354;2023-04-29T14:00:40;15.57;;;9.40;;
16954;SDS011;8594;52.052;8.354;2023-04-29T14:03:07;13.00;;;8.47;;
16954;SDS011;8594;52.052;8.354;2023-04-29T14:05:33;15.00;;;8.57;;
16954;SDS011;8594;52.052;8.354;2023-04-29T14:08:01;13.17;;;8.77;;
16954;SDS011;8594;52.052;8.354;2023-04-29T14:10:28;12.20;;;7.80;;
16954;SDS011;8594;52.052;8.354;2023-04-29T14:12:55;13.20;;;7.97;;
16954;SDS011;8594;52.052;8.354;2023-04-29T14:15:22;10.80;;;7.00;;
16954;SDS011;8594;52.052;8.354;2023-04-29T14:17:50;13.50;;;7.37;;
16954;SDS011;8594;52.052;8.354;2023-04-29T14:20:19;10.93;;;6.57;;
16954;SDS011;8594;52.052;8.354;2023-04-29T14:22:46;12.67;;;5.83;;
16954;SDS011;8594;52.052;8.354;2023-04-29T14:25:12;10.47;;;4.83;;
16954;SDS011;8594;52.052;8.354;2023-04-29T14:27:40;9.03;;;6.00;;
16954;SDS011;8594;52.052;8.354;2023-04-29T14:30:07;8.77;;;5.07;;
16954;SDS011;8594;52.052;8.354;2023-04-29T14:32:34;8.40;;;5.43;;
16954;SDS011;8594;52.052;8.354;2023-04-29T14:35:03;10.53;;;5.53;;
16954;SDS011;8594;52.052;8.354;2023-04-29T14:37:31;11.83;;;5.47;;
16954;SDS011;8594;52.052;8.354;2023-04-29T14:39:58;10.33;;;5.60;;
16954;SDS011;8594;52.052;8.354;2023-04-29T14:42:24;9.03;;;5.30;;
16954;SDS011;8594;52.052;8.354;2023-04-29T14:44:51;7.70;;;5.27;;
16954;SDS011;8594;52.052;8.354;2023-04-29T14:47:19;9.37;;;6.03;;
16954;SDS011;8594;52.052;8.354;2023-04-29T14:49:45;9.33;;;5.93;;
16954;SDS011;8594;52.052;8.354;2023-04-29T14:52:13;10.57;;;6.03;;